Time;durP1;ratioP1;P1;durP2;ratioP2;P2;SDS_P1;SDS_P2;PMS_P1;PMS_P2;Temp;Humidity;BMP_temperature;BMP_pressure;BME280_temperature;BME280_humidity;BME280_pressure;Samples;Min_cycle;Max_cycle;Signal;HPM_P1;HPM_P2
2022/06/20 00:01:00;;;;;;;9.85;6.05;;;;;;;30.22;41.22;99047.09;4985790;28;20054;-77
2022/06/20 00:03:36;;;;;;;11.65;6.63;;;;;;;30.19;41.66;99044.94;4990130;28;20078;-77
2022/06/20 00:06:04;;;;;;;15.00;7.30;;;;;;;30.15;41.63;99046.59;4974557;28;20092;-77
2022/06/20 00:08:31;;;;;;;14.38;7.25;;;;;;;30.11;42.05;99053.75;5002325;28;20096;-77
2022/06/20 00:10:57;;;;;;;13.32;7.68;;;;;;;30.04;42.16;99051.31;4986612;28;20066;-77
2022/06/20 00:13:28;;;;;;;10.68;6.60;;;;;;;29.96;43.41;99052.75;4981323;28;20644;-78
2022/06/20 00:15:56;;;;;;;13.80;7.22;;;;;;;29.95;43.05;99053.03;4966715;28;20042;-82
2022/06/20 00:18:23;;;;;;;13.00;7.50;;;;;;;29.90;43.11;99042.94;5000527;28;20096;-82
2022/06/20 00:20:50;;;;;;;12.90;7.60;;;;;;;29.85;43.50;99041.03;4982143;28;21006;-82
2022/06/20 00:23:17;;;;;;;12.05;7.22;;;;;;;29.79;43.78;99033.13;5001865;28;20408;-82
2022/06/20 00:25:44;;;;;;;13.90;7.60;;;;;;;29.75;43.63;99032.88;4981545;28;20050;-80
2022/06/20 00:28:12;;;;;;;11.35;7.35;;;;;;;29.69;43.67;99036.72;4981045;28;20524;-80
2022/06/20 00:30:39;;;;;;;12.15;7.18;;;;;;;29.63;43.55;99043.31;4979590;28;20045;-80
2022/06/20 00:33:06;;;;;;;13.50;7.47;;;;;;;29.59;43.19;99032.13;4985978;28;20039;-80
2022/06/20 00:35:34;;;;;;;9.93;6.57;;;;;;;29.57;43.02;99033.50;4963021;28;20463;-79
2022/06/20 00:38:02;;;;;;;12.65;7.75;;;;;;;29.56;43.24;99034.56;4982394;28;20549;-80
2022/06/20 00:40:40;;;;;;;14.32;7.70;;;;;;;29.54;43.61;99044.97;4971927;28;20072;-80
2022/06/20 00:43:10;;;;;;;13.38;7.63;;;;;;;29.50;43.45;99046.66;4981865;28;20038;-79
2022/06/20 00:45:57;;;;;;;15.00;8.25;;;;;;;29.42;44.33;99048.06;4983290;28;20053;-79
2022/06/20 00:48:54;;;;;;;12.43;7.60;;;;;;;29.34;45.27;99043.16;4980122;28;20053;-80
2022/06/20 00:51:45;;;;;;;14.35;8.75;;;;;;;29.28;45.57;99047.81;4964704;28;20052;-80
2022/06/20 00:54:53;;;;;;;12.30;7.10;;;;;;;29.25;45.36;99051.09;4956650;28;20091;-80
2022/06/20 00:57:53;;;;;;;13.43;8.02;;;;;;;29.23;44.68;99053.28;4951209;28;20096;-80
2022/06/20 01:00:39;;;;;;;9.48;7.20;;;;;;;29.23;44.12;99042.34;4994094;28;20049;-80
2022/06/20 01:03:28;;;;;;;33.20;8.35;;;;;;;29.18;44.16;99047.84;4973473;28;20112;-79
2022/06/20 01:06:21;;;;;;;14.55;7.70;;;;;;;29.15;44.71;99045.66;4988371;28;20048;-80
2022/06/20 01:09:09;;;;;;;14.10;8.30;;;;;;;29.12;44.48;99047.03;4964153;28;20048;-80
2022/06/20 01:11:57;;;;;;;14.77;7.13;;;;;;;29.09;44.62;99047.59;4967406;28;20106;-80
2022/06/20 01:14:42;;;;;;;11.98;7.47;;;;;;;29.04;45.14;99044.84;4974547;28;20153;-79
2022/06/20 01:17:35;;;;;;;14.52;7.93;;;;;;;28.95;46.35;99032.81;4968407;28;20061;-79
2022/06/20 01:20:24;;;;;;;13.23;7.35;;;;;;;28.89;45.88;99039.41;4946294;28;20561;-79
2022/06/20 01:23:43;;;;;;;12.68;7.38;;;;;;;28.86;46.29;99057.16;4966506;28;20131;-79
2022/06/20 01:26:41;;;;;;;13.05;8.30;;;;;;;28.87;45.57;99053.31;4949271;28;20091;-79
2022/06/20 01:29:26;;;;;;;15.93;7.45;;;;;;;28.89;44.48;99051.13;4993186;28;20064;-82
2022/06/20 01:32:11;;;;;;;13.23;7.70;;;;;;;28.88;44.72;99051.44;4983469;28;20192;-82
2022/06/20 01:34:58;;;;;;;17.15;7.20;;;;;;;28.84;45.10;99053.88;4984442;28;20073;-82
2022/06/20 01:37:44;;;;;;;10.85;6.90;;;;;;;28.83;45.04;99054.19;4951465;28;20148;-82
2022/06/20 01:40:29;;;;;;;14.10;7.20;;;;;;;28.81;45.32;99054.44;4967193;28;20045;-82
2022/06/20 01:43:14;;;;;;;16.52;7.20;;;;;;;28.79;44.78;99054.69;4937943;28;20069;-82
2022/06/20 01:46:01;;;;;;;11.98;6.72;;;;;;;28.78;44.84;99046.78;4992522;28;20111;-82
2022/06/20 01:48:52;;;;;;;9.77;6.68;;;;;;;28.72;45.47;99051.41;4951114;28;20069;-82
2022/06/20 01:51:56;;;;;;;14.77;8.07;;;;;;;28.66;45.66;99065.38;4956137;28;20505;-82
2022/06/20 01:54:55;;;;;;;12.15;7.03;;;;;;;28.55;46.44;99080.94;4980510;28;20049;-82
2022/06/20 01:57:43;;;;;;;12.60;7.55;;;;;;;28.49;46.71;99091.03;4953851;28;20045;-82
2022/06/20 02:00:28;;;;;;;10.85;7.38;;;;;;;28.44;46.65;99099.22;4949019;28;20517;-77
2022/06/20 02:03:17;;;;;;;13.73;7.20;;;;;;;28.39;46.88;99101.09;4967468;28;20052;-77
2022/06/20 02:06:07;;;;;;;11.57;6.82;;;;;;;28.23;46.53;99103.78;4942898;28;20119;-77
2022/06/20 02:08:54;;;;;;;11.40;6.53;;;;;;;28.00;46.41;99102.38;4981487;28;20128;-82
2022/06/20 02:11:47;;;;;;;13.75;7.45;;;;;;;27.76;47.17;99102.00;4982862;28;20060;-82
2022/06/20 02:14:37;;;;;;;11.43;7.00;;;;;;;27.74;46.93;99095.16;4940787;28;20045;-82
2022/06/20 02:17:41;;;;;;;12.70;7.43;;;;;;;27.78;47.30;99074.44;4950150;28;20185;-82
2022/06/20 02:20:29;;;;;;;13.00;7.47;;;;;;;27.90;46.60;99075.06;4914032;28;20135;-82
2022/06/20 02:23:17;;;;;;;15.18;7.60;;;;;;;27.99;46.25;99078.91;4954676;28;20064;-83
2022/06/20 02:26:04;;;;;;;11.45;7.05;;;;;;;28.07;46.19;99075.66;4947827;28;20061;-82
2022/06/20 02:29:23;;;;;;;13.45;7.35;;;;;;;28.00;46.81;99079.72;4955654;28;20406;-82
2022/06/20 02:32:12;;;;;;;15.75;7.88;;;;;;;28.03;46.25;99074.53;4917317;28;20123;-82
2022/06/20 02:34:58;;;;;;;14.70;7.88;;;;;;;28.06;46.18;99075.91;4952270;28;20125;-82
2022/06/20 02:37:44;;;;;;;12.30;7.65;;;;;;;28.09;46.38;99065.28;4966206;28;20145;-82
2022/06/20 02:40:31;;;;;;;16.73;8.60;;;;;;;28.11;46.40;99071.31;4953057;28;20406;-80
2022/06/20 02:43:37;;;;;;;14.90;7.00;;;;;;;28.08;46.64;99090.09;4962140;28;20116;-82
2022/06/20 02:46:26;;;;;;;17.50;6.97;;;;;;;28.07;46.07;99102.94;4935696;28;20056;-77
2022/06/20 02:49:11;;;;;;;14.05;7.97;;;;;;;27.98;46.28;99096.34;4935964;28;20164;-77
2022/06/20 02:51:57;;;;;;;15.18;7.35;;;;;;;27.99;46.30;99113.56;4968343;28;20104;-77
2022/06/20 02:54:43;;;;;;;18.00;7.65;;;;;;;27.96;46.42;99117.66;4942235;28;20045;-77
2022/06/20 02:57:35;;;;;;;13.68;7.72;;;;;;;27.99;46.42;99100.75;4968967;28;20501;-77
2022/06/20 03:00:26;;;;;;;11.90;7.90;;;;;;;28.03;46.38;99117.38;4966486;28;20048;-82
2022/06/20 03:03:19;;;;;;;11.73;6.97;;;;;;;28.05;46.69;99105.13;4945654;28;20052;-82
2022/06/20 03:06:09;;;;;;;15.35;7.72;;;;;;;28.10;46.15;99110.59;4955557;28;20053;-83
2022/06/20 03:08:54;;;;;;;15.82;7.57;;;;;;;28.10;45.97;99107.84;4953760;28;20044;-82
2022/06/20 03:11:40;;;;;;;17.63;8.48;;;;;;;28.10;46.21;99101.59;4967058;28;20528;-84
2022/06/20 03:14:33;;;;;;;17.23;8.65;;;;;;;28.09;46.55;99108.16;4992748;28;20414;-83
2022/06/20 03:17:20;;;;;;;12.75;7.53;;;;;;;28.10;46.29;99147.97;4978489;28;20050;-83
2022/06/20 03:20:11;;;;;;;15.00;7.15;;;;;;;28.07;46.35;99156.72;4970079;28;20340;-82
2022/06/20 03:23:10;;;;;;;14.52;8.07;;;;;;;28.06;46.36;99161.34;4962867;28;20129;-83
2022/06/20 03:25:58;;;;;;;14.40;8.20;;;;;;;28.02;46.28;99162.97;4980824;28;20048;-82
2022/06/20 03:28:43;;;;;;;12.55;8.27;;;;;;;28.00;46.35;99158.88;4989795;28;20390;-82
2022/06/20 03:31:29;;;;;;;14.27;8.25;;;;;;;27.91;46.20;99162.09;4964707;28;20157;-81
2022/06/20 03:34:15;;;;;;;16.05;7.57;;;;;;;27.81;46.45;99172.09;4979567;28;20130;-81
2022/06/20 03:37:02;;;;;;;13.77;7.28;;;;;;;27.50;46.50;99163.75;4955606;28;20045;-82
2022/06/20 03:39:48;;;;;;;14.73;6.50;;;;;;;27.25;45.39;99181.59;4970096;28;20133;-82
2022/06/20 03:42:33;;;;;;;10.70;5.70;;;;;;;26.75;45.89;99171.06;4968577;28;20092;-81
2022/06/20 03:45:19;;;;;;;14.50;6.25;;;;;;;26.30;46.59;99164.81;4976151;28;20049;-81
2022/06/20 03:48:19;;;;;;;12.05;5.70;;;;;;;26.00;47.29;99138.09;4978809;28;20049;-82
2022/06/20 03:51:09;;;;;;;11.13;5.40;;;;;;;25.91;46.76;99169.53;4951211;28;20493;-82
2022/06/20 03:54:03;;;;;;;10.20;5.85;;;;;;;25.63;47.29;99135.97;4955832;28;20045;-82
2022/06/20 03:57:15;;;;;;;12.95;4.82;;;;;;;25.58;46.46;99160.38;4997926;28;20081;-88
2022/06/20 04:00:08;;;;;;;9.80;4.97;;;;;;;25.66;46.57;99173.53;4943247;28;20124;-82
2022/06/20 04:03:11;;;;;;;11.25;4.50;;;;;;;25.64;45.58;99215.63;4971349;28;20057;-81
2022/06/20 04:06:01;;;;;;;19.73;5.80;;;;;;;25.67;45.49;99231.44;4986940;28;20524;-81
2022/06/20 04:12:25;;;;;;;11.35;4.45;;;;;;;25.74;44.96;99232.91;4949749;28;20477;-80
2022/06/20 04:15:16;;;;;;;8.43;3.55;;;;;;;25.90;44.75;99246.75;4982280;28;20404;-77
2022/06/20 04:18:28;;;;;;;9.52;3.97;;;;;;;25.77;44.65;99243.31;4972880;28;20049;-77
2022/06/20 04:21:48;;;;;;;8.82;4.00;;;;;;;25.86;44.51;99243.72;4930634;28;20052;-77
2022/06/20 04:24:44;;;;;;;7.93;4.47;;;;;;;26.14;44.15;99269.97;4931900;28;20398;-77
2022/06/20 04:27:46;;;;;;;9.13;4.28;;;;;;;26.38;43.88;99239.78;4981060;28;20185;-80
2022/06/20 04:30:40;;;;;;;7.35;3.60;;;;;;;26.50;43.14;99253.25;4957614;28;20045;-81
2022/06/20 04:33:43;;;;;;;7.00;4.00;;;;;;;26.58;43.62;99277.34;4944502;28;20049;-80
2022/06/20 04:36:37;;;;;;;10.63;4.78;;;;;;;26.71;43.60;99281.56;4925504;28;20116;-85
2022/06/20 04:39:46;;;;;;;6.93;3.95;;;;;;;26.82;44.06;99288.81;4969000;28;20061;-85
2022/06/20 04:42:41;;;;;;;12.07;5.35;;;;;;;26.92;43.40;99277.16;4944569;28;20053;-77
2022/06/20 04:45:26;;;;;;;10.30;4.13;;;;;;;27.01;42.85;99272.91;4955817;28;20620;-77
2022/06/20 04:48:16;;;;;;;12.98;3.88;;;;;;;27.06;42.53;99275.69;4954586;28;20042;-77
2022/06/20 04:51:06;;;;;;;10.98;4.63;;;;;;;27.10;42.37;99286.91;4986302;28;20052;-77
2022/06/20 04:53:51;;;;;;;8.75;4.22;;;;;;;27.18;42.39;99294.66;4973953;28;20069;-77
2022/06/20 04:56:36;;;;;;;10.25;4.15;;;;;;;27.19;41.72;99286.19;4973374;28;20096;-77
2022/06/20 04:59:26;;;;;;;8.32;4.47;;;;;;;27.15;41.66;99279.59;4963857;28;20122;-77
2022/06/20 05:02:18;;;;;;;9.73;4.13;;;;;;;27.16;41.62;99274.97;4956994;28;20053;-77
2022/06/20 05:05:04;;;;;;;8.45;4.13;;;;;;;27.16;41.63;99273.06;4959077;28;20046;-77
2022/06/20 05:07:50;;;;;;;8.45;3.85;;;;;;;27.03;41.79;99276.19;4967564;28;20068;-77
2022/06/20 05:10:41;;;;;;;8.05;3.90;;;;;;;26.78;42.00;99285.75;4965393;28;20053;-77
2022/06/20 05:13:40;;;;;;;14.98;4.32;;;;;;;26.65;42.28;99290.78;4991369;28;20390;-77
2022/06/20 05:16:35;;;;;;;8.45;4.18;;;;;;;26.60;42.06;99283.38;4973824;28;20568;-77
2022/06/20 05:19:30;;;;;;;8.15;3.63;;;;;;;26.59;41.67;99289.91;4974771;28;20176;-77
2022/06/20 05:22:20;;;;;;;11.25;4.55;;;;;;;26.57;41.81;99292.88;4982394;28;20049;-80
2022/06/20 05:25:16;;;;;;;6.72;3.80;;;;;;;26.52;41.66;99300.97;4974973;28;20169;-80
2022/06/20 05:28:04;;;;;;;8.77;3.70;;;;;;;26.54;41.57;99290.66;4943968;28;20048;-80
2022/06/20 05:30:49;;;;;;;9.77;3.90;;;;;;;26.61;41.72;99302.19;4957162;28;20053;-81
2022/06/20 05:33:41;;;;;;;9.18;3.50;;;;;;;26.68;41.77;99301.97;4955748;28;20406;-80
2022/06/20 05:36:10;;;;;;;13.13;4.00;;;;;;;26.75;41.64;99305.31;4949903;28;20050;-80
2022/06/20 05:38:48;;;;;;;5.93;3.53;;;;;;;26.80;41.30;99297.22;4989079;28;20160;-85
2022/06/20 05:41:16;;;;;;;9.23;3.90;;;;;;;26.85;41.55;99297.28;4942359;28;20050;-85
2022/06/20 05:43:43;;;;;;;9.65;3.72;;;;;;;26.89;41.52;99286.66;4980087;28;20408;-85
2022/06/20 05:46:12;;;;;;;9.38;3.83;;;;;;;26.93;41.58;99298.72;4960037;28;20046;-85
2022/06/20 05:48:48;;;;;;;10.20;3.40;;;;;;;26.91;41.72;99303.59;4963857;28;20606;-77
2022/06/20 05:51:17;;;;;;;10.80;3.95;;;;;;;26.92;41.97;99304.41;4940978;28;20193;-77
2022/06/20 05:53:51;;;;;;;8.15;3.50;;;;;;;26.92;41.55;99302.53;4954760;28;20050;-77
2022/06/20 05:56:22;;;;;;;17.30;4.57;;;;;;;26.93;41.55;99296.00;4930522;28;20042;-85
2022/06/20 05:58:49;;;;;;;10.45;4.13;;;;;;;26.97;41.60;99296.28;4972538;28;20501;-85
2022/06/20 06:01:21;;;;;;;6.78;3.58;;;;;;;26.95;41.53;99293.84;4965599;28;20096;-86
2022/06/20 06:03:51;;;;;;;10.13;4.35;;;;;;;26.96;41.32;99305.56;4968632;28;20038;-85
2022/06/20 06:06:22;;;;;;;11.55;3.92;;;;;;;26.93;41.29;99312.34;4945437;28;20061;-85
2022/06/20 06:08:56;;;;;;;8.10;3.75;;;;;;;26.92;41.74;99324.31;4984675;28;20440;-84
2022/06/20 06:11:37;;;;;;;7.53;3.60;;;;;;;26.87;41.73;99335.16;4977488;28;20429;-85
2022/06/20 06:14:30;;;;;;;9.52;4.03;;;;;;;26.88;41.98;99327.81;4963281;28;20044;-85
2022/06/20 06:17:06;;;;;;;8.20;4.18;;;;;;;26.91;41.86;99324.56;4984777;28;20042;-85
2022/06/20 06:20:01;;;;;;;10.68;4.32;;;;;;;26.96;41.74;99335.53;4958474;28;20516;-85
2022/06/20 06:22:32;;;;;;;11.55;4.07;;;;;;;26.95;41.69;99326.53;4976818;28;20080;-85
2022/06/20 06:25:04;;;;;;;7.97;4.03;;;;;;;26.99;41.98;99335.00;4984624;28;20049;-85
2022/06/20 06:27:33;;;;;;;8.20;4.10;;;;;;;27.01;41.74;99332.84;4962086;28;20056;-85
2022/06/20 06:30:05;;;;;;;9.30;3.95;;;;;;;27.08;41.68;99335.38;4991721;28;20054;-85
2022/06/20 06:32:37;;;;;;;7.90;3.60;;;;;;;27.11;41.80;99332.16;4973783;28;20050;-86
2022/06/20 06:35:06;;;;;;;8.13;4.25;;;;;;;27.15;41.75;99341.47;4948165;28;20500;-84
2022/06/20 06:37:55;;;;;;;6.43;4.13;;;;;;;27.16;41.70;99326.75;4971064;28;20841;-82
2022/06/20 06:40:35;;;;;;;6.80;3.67;;;;;;;27.19;41.17;99350.78;4945018;28;20048;-86
2022/06/20 06:43:28;;;;;;;9.40;4.28;;;;;;;27.25;42.10;99357.97;4964145;28;20055;-85
2022/06/20 06:45:58;;;;;;;9.60;3.78;;;;;;;27.33;41.69;99371.13;4920292;28;20039;-81
2022/06/20 06:48:50;;;;;;;11.00;3.83;;;;;;;27.37;41.47;99358.59;4964554;28;20052;-86
2022/06/20 06:51:22;;;;;;;7.82;4.22;;;;;;;27.43;41.75;99357.59;4935361;28;20656;-85
2022/06/20 06:54:03;;;;;;;11.00;4.00;;;;;;;27.49;41.36;99369.38;4973626;28;20053;-85
2022/06/20 06:56:41;;;;;;;8.50;3.65;;;;;;;27.49;41.29;99355.72;4962576;28;20047;-86
2022/06/20 06:59:14;;;;;;;8.52;4.22;;;;;;;27.48;41.50;99351.38;4924113;28;20038;-78
2022/06/20 07:01:45;;;;;;;11.27;3.65;;;;;;;27.41;41.47;99358.94;4941005;28;20059;-79
2022/06/20 07:04:26;;;;;;;10.23;3.85;;;;;;;27.37;41.62;99365.97;4949452;28;20049;-85
2022/06/20 07:07:04;;;;;;;13.32;4.82;;;;;;;27.31;41.65;99365.09;4971582;28;20046;-86
2022/06/20 07:09:36;;;;;;;9.48;3.95;;;;;;;27.26;42.30;99384.94;4967517;28;20042;-85
2022/06/20 07:12:22;;;;;;;;;;;;;;;27.23;42.32;99390.91;4969343;28;20045;-86
2022/06/20 07:15:07;;;;;;;7.93;3.80;;;;;;;27.37;42.41;99385.06;4963151;28;19963;-85
2022/06/20 07:17:49;;;;;;;8.00;4.57;;;;;;;26.81;44.63;99382.47;4962707;28;20089;-78
2022/06/20 07:20:17;;;;;;;8.85;5.03;;;;;;;26.73;44.34;99381.03;4979791;28;20474;-79
2022/06/20 07:22:45;;;;;;;11.88;4.50;;;;;;;26.73;44.43;99386.47;4982693;28;20496;-79
2022/06/20 07:25:23;;;;;;;10.98;5.10;;;;;;;26.82;44.68;99389.59;4976845;28;20041;-85
2022/06/20 07:28:05;;;;;;;8.45;4.53;;;;;;;26.96;44.88;99390.03;4989390;28;20061;-84
2022/06/20 07:30:38;;;;;;;9.27;5.05;;;;;;;27.24;44.76;99389.81;4962447;28;20046;-77
2022/06/20 07:33:23;;;;;;;9.65;5.10;;;;;;;27.43;44.29;99384.03;4964757;28;20049;-77
2022/06/20 07:35:54;;;;;;;16.17;5.97;;;;;;;27.46;42.88;99389.78;4975744;28;20050;-77
2022/06/20 07:38:31;;;;;;;11.68;4.70;;;;;;;27.33;42.77;99381.22;4994278;28;20460;-81
2022/06/20 07:41:28;;;;;;;8.23;3.63;;;;;;;27.28;43.15;99371.06;4971923;28;20121;-86
2022/06/20 07:44:07;;;;;;;8.10;4.13;;;;;;;27.33;42.77;99373.84;4931121;28;20050;-86
2022/06/20 07:46:53;;;;;;;8.57;4.28;;;;;;;27.31;41.53;99370.56;4974514;28;20400;-86
2022/06/20 07:49:33;;;;;;;8.75;3.92;;;;;;;27.35;41.85;99363.50;4952884;28;20050;-86
2022/06/20 07:52:07;;;;;;;7.22;4.15;;;;;;;27.39;42.17;99369.25;4985810;28;20070;-86
2022/06/20 07:54:39;;;;;;;9.25;4.72;;;;;;;27.39;42.23;99386.44;4994708;28;20050;-85
2022/06/20 07:57:12;;;;;;;13.20;4.05;;;;;;;27.37;42.29;99396.78;4970714;28;20453;-85
2022/06/20 07:59:53;;;;;;;13.20;4.20;;;;;;;27.41;42.52;99408.00;4967061;28;20049;-86
2022/06/20 08:02:31;;;;;;;9.85;4.40;;;;;;;27.33;42.51;99405.75;4908864;28;20061;-86
2022/06/20 08:04:59;;;;;;;8.25;4.10;;;;;;;27.21;42.45;99401.25;4988849;28;20848;-85
2022/06/20 08:07:44;;;;;;;11.77;4.18;;;;;;;27.10;42.35;99393.19;4987419;28;20049;-81
2022/06/20 08:10:16;;;;;;;13.00;4.28;;;;;;;27.02;42.85;99372.63;4969872;28;20133;-85
2022/06/20 08:13:17;;;;;;;12.57;4.60;;;;;;;26.96;43.07;99343.69;4979921;28;20502;-79
2022/06/20 08:15:57;;;;;;;11.68;4.85;;;;;;;26.99;42.76;99349.44;4971478;28;20521;-81
2022/06/20 08:18:24;;;;;;;13.50;4.13;;;;;;;27.19;42.53;99350.78;4979664;28;20049;-82
2022/06/20 08:21:02;;;;;;;6.78;3.88;;;;;;;27.28;42.45;99346.53;4962424;28;20049;-79
2022/06/20 08:23:35;;;;;;;9.23;4.57;;;;;;;27.41;42.30;99350.75;4982262;28;20047;-80
2022/06/20 08:26:06;;;;;;;11.18;4.13;;;;;;;27.53;42.14;99356.03;4967124;28;20061;-85
2022/06/20 08:29:00;;;;;;;11.35;4.55;;;;;;;27.66;41.86;99356.44;4982880;28;20441;-81
2022/06/20 08:31:33;;;;;;;7.03;4.55;;;;;;;27.75;41.80;99348.56;4971143;28;20549;-86
2022/06/20 08:34:07;;;;;;;9.27;4.22;;;;;;;27.80;41.37;99356.00;4970090;28;20500;-77
2022/06/20 08:36:57;;;;;;;14.70;4.75;;;;;;;27.91;41.60;99330.44;4962040;28;20489;-77
2022/06/20 08:39:33;;;;;;;9.65;4.40;;;;;;;28.01;41.97;99337.88;4953900;28;20100;-77
2022/06/20 08:42:33;;;;;;;6.18;3.97;;;;;;;28.14;41.65;99327.34;4971774;28;20453;-77
2022/06/20 08:45:09;;;;;;;9.18;4.00;;;;;;;28.14;41.58;99318.34;4927018;28;20053;-77
2022/06/20 08:47:42;;;;;;;;;;;;;;;28.14;41.54;99326.53;4981697;28;20042;-77
2022/06/20 08:50:30;;;;;;;9.35;4.35;;;;;;;28.29;41.53;99362.13;4968863;28;20313;-77
2022/06/20 08:53:24;;;;;;;10.52;4.00;;;;;;;28.27;40.73;99363.47;4926963;28;20038;-84
2022/06/20 08:55:58;;;;;;;9.48;4.63;;;;;;;28.20;41.26;99362.88;4981083;28;20045;-85
2022/06/20 08:58:38;;;;;;;10.68;4.57;;;;;;;28.23;41.19;99365.06;4994606;28;20046;-84
2022/06/20 09:01:05;;;;;;;9.63;4.35;;;;;;;28.21;41.26;99356.31;4982791;28;20046;-84
2022/06/20 09:03:47;;;;;;;12.68;4.10;;;;;;;28.23;41.29;99370.53;4981975;28;20053;-77
2022/06/20 09:06:17;;;;;;;12.55;4.10;;;;;;;28.30;41.26;99374.66;4979782;28;20050;-79
2022/06/20 09:09:22;;;;;;;12.50;4.70;;;;;;;28.43;41.00;99378.84;4982637;28;20486;-78
2022/06/20 09:12:17;;;;;;;12.13;4.15;;;;;;;28.35;41.08;99380.16;4881215;29;20118;-79
2022/06/20 09:15:11;;;;;;;12.30;4.88;;;;;;;28.37;41.39;99377.19;4886900;28;20506;-77
2022/06/20 09:17:57;;;;;;;10.68;4.70;;;;;;;28.41;41.20;99386.47;4923404;28;20054;-77
2022/06/20 09:20:32;;;;;;;10.35;4.38;;;;;;;28.40;41.38;99386.75;4939425;28;20043;-85
2022/06/20 09:23:10;;;;;;;10.63;4.70;;;;;;;28.42;41.25;99381.81;4915071;28;20050;-84
2022/06/20 09:25:52;;;;;;;9.40;3.90;;;;;;;28.36;41.30;99391.91;4909270;28;20043;-81
2022/06/20 09:28:30;;;;;;;8.32;3.63;;;;;;;28.33;41.20;99386.97;4914568;28;20053;-85
2022/06/20 09:31:18;;;;;;;10.55;4.07;;;;;;;28.44;40.83;99396.88;4944980;28;20055;-79
2022/06/20 09:33:56;;;;;;;9.32;4.10;;;;;;;28.39;41.03;99391.38;4942668;28;20154;-77
2022/06/20 09:36:31;;;;;;;8.25;4.20;;;;;;;28.42;41.14;99400.94;4931231;28;20639;-81
2022/06/20 09:39:01;;;;;;;12.20;4.40;;;;;;;28.43;41.33;99400.69;4905201;28;20056;-79
2022/06/20 09:41:36;;;;;;;12.98;4.68;;;;;;;28.47;41.24;99401.00;4946527;28;20047;-81
2022/06/20 09:44:20;;;;;;;6.93;4.15;;;;;;;28.45;41.14;99390.34;4928301;28;20043;-79
2022/06/20 09:47:08;;;;;;;9.43;3.65;;;;;;;28.50;41.05;99414.16;4974917;28;20137;-79
2022/06/20 09:49:54;;;;;;;8.23;3.65;;;;;;;28.40;40.24;99414.06;4957451;28;20383;-86
2022/06/20 09:52:34;;;;;;;11.23;4.10;;;;;;;28.21;41.01;99411.72;4968052;28;20050;-78
2022/06/20 09:55:01;;;;;;;10.18;3.50;;;;;;;28.34;41.19;99427.69;4946874;28;20535;-79
2022/06/20 09:57:44;;;;;;;9.05;3.58;;;;;;;28.36;41.40;99421.94;4962793;28;20052;-86
2022/06/20 10:00:16;;;;;;;12.65;4.20;;;;;;;28.30;41.21;99412.91;4939161;28;20061;-84
2022/06/20 10:02:51;;;;;;;8.30;3.43;;;;;;;28.20;41.57;99429.22;4986493;28;20073;-77
2022/06/20 10:05:27;;;;;;;10.13;3.50;;;;;;;28.23;41.77;99430.59;4996349;28;20445;-85
2022/06/20 10:08:07;;;;;;;8.00;3.78;;;;;;;28.18;41.25;99436.81;4957779;28;20464;-80
2022/06/20 10:10:42;;;;;;;10.60;3.97;;;;;;;28.28;41.02;99444.28;4981790;28;20041;-80
2022/06/20 10:13:23;;;;;;;6.53;3.10;;;;;;;28.02;40.96;99456.91;4983675;28;20054;-79
2022/06/20 10:15:59;;;;;;;10.32;3.42;;;;;;;27.98;41.25;99458.50;4981571;28;20049;-77
2022/06/20 10:18:41;;;;;;;10.05;3.33;;;;;;;28.01;41.59;99460.69;4967442;28;20452;-79
2022/06/20 10:21:31;;;;;;;9.18;3.20;;;;;;;27.96;41.44;99460.66;4982428;28;20373;-81
2022/06/20 10:24:23;;;;;;;8.68;3.15;;;;;;;28.04;41.64;99461.03;4976827;28;20073;-79
2022/06/20 10:27:09;;;;;;;7.55;3.15;;;;;;;28.11;40.92;99460.78;4924243;28;20205;-77
2022/06/20 10:30:04;;;;;;;8.93;3.85;;;;;;;28.11;40.94;99461.63;4864406;29;20063;-78
2022/06/20 10:33:07;;;;;;;8.38;3.25;;;;;;;28.12;40.64;99462.44;4888609;29;20047;-77
2022/06/20 10:35:44;;;;;;;9.43;3.20;;;;;;;27.80;41.28;99485.03;4862798;29;20066;-77
2022/06/20 10:38:32;;;;;;;11.38;3.30;;;;;;;27.34;42.64;99503.63;4909313;29;20138;-80
2022/06/20 10:40:59;;;;;;;6.13;3.47;;;;;;;27.10;43.19;99481.22;4906451;29;20051;-79
2022/06/20 10:43:41;;;;;;;7.38;3.70;;;;;;;26.79;44.26;99485.41;4890726;29;20055;-79
2022/06/20 10:46:10;;;;;;;8.65;3.92;;;;;;;26.53;44.40;99463.25;4906012;29;20575;-78
2022/06/20 10:48:47;;;;;;;10.95;3.85;;;;;;;26.36;45.46;99463.25;4893259;29;20044;-78
2022/06/20 10:51:31;;;;;;;6.78;3.22;;;;;;;26.17;46.19;99480.91;4900925;29;20481;-77
2022/06/20 10:54:08;;;;;;;8.30;3.40;;;;;;;26.09;45.48;99481.31;4921765;28;20413;-76
2022/06/20 10:56:47;;;;;;;16.42;3.65;;;;;;;25.93;46.59;99493.84;4917174;29;20060;-77
2022/06/20 10:59:35;;;;;;;8.10;3.50;;;;;;;26.01;46.15;99484.44;4967839;28;20038;-77
2022/06/20 11:02:58;;;;;;;7.10;4.10;;;;;;;26.17;45.55;99489.88;4953434;28;20049;-77
2022/06/20 11:05:37;;;;;;;8.82;3.55;;;;;;;26.33;45.26;99481.97;4926131;28;20593;-77
2022/06/20 11:08:11;;;;;;;10.25;3.88;;;;;;;26.45;45.64;99490.06;4973951;28;20049;-78
2022/06/20 11:10:50;;;;;;;12.13;3.70;;;;;;;26.54;45.08;99502.22;4981453;28;20374;-77
2022/06/20 11:13:56;;;;;;;11.25;3.72;;;;;;;26.49;44.63;99505.66;4982378;28;20101;-78
2022/06/20 11:16:43;;;;;;;9.35;3.70;;;;;;;26.36;44.67;99516.88;4934773;28;20374;-77
2022/06/20 11:19:15;;;;;;;8.90;4.18;;;;;;;26.17;45.11;99519.81;4977981;28;20065;-80
2022/06/20 11:21:45;;;;;;;9.20;3.72;;;;;;;25.92;45.45;99530.25;4990038;28;20077;-79
2022/06/20 11:24:28;;;;;;;11.50;4.28;;;;;;;26.08;46.17;99525.91;4986146;28;20069;-79
2022/06/20 11:27:03;;;;;;;7.38;3.53;;;;;;;26.20;46.14;99523.94;4996089;28;20050;-79
2022/06/20 11:29:48;;;;;;;10.65;3.75;;;;;;;26.28;45.60;99530.88;4971351;28;20046;-77
2022/06/20 11:32:38;;;;;;;11.93;4.43;;;;;;;26.25;46.38;99534.09;4966000;28;20893;-77
2022/06/20 11:35:16;;;;;;;7.80;4.38;;;;;;;26.31;46.17;99547.56;4988487;28;20065;-79
2022/06/20 11:38:11;;;;;;;9.68;3.80;;;;;;;26.50;45.91;99553.59;4957933;28;20057;-79
2022/06/20 11:41:00;;;;;;;9.32;4.22;;;;;;;26.38;46.26;99555.56;4980002;28;20060;-79
2022/06/20 11:43:40;;;;;;;8.88;4.20;;;;;;;26.32;46.84;99583.78;4993988;28;20053;-79
2022/06/20 11:46:12;;;;;;;11.45;4.20;;;;;;;26.19;46.07;99568.56;4980432;28;20092;-79
2022/06/20 11:48:57;;;;;;;9.73;3.80;;;;;;;26.10;46.76;99572.75;4991509;28;20049;-79
2022/06/20 11:51:29;;;;;;;7.10;3.90;;;;;;;26.23;46.86;99568.91;4976960;28;20053;-79
2022/06/20 11:54:14;;;;;;;8.45;4.40;;;;;;;26.18;47.09;99575.06;4935056;28;20062;-79
2022/06/20 11:56:48;;;;;;;14.68;5.25;;;;;;;26.28;47.13;99567.13;4930083;28;20049;-79
2022/06/20 11:59:38;;;;;;;7.38;3.83;;;;;;;26.25;47.05;99580.38;4963821;28;20046;-79
2022/06/20 12:02:14;;;;;;;9.07;3.97;;;;;;;26.31;46.89;99576.69;4966806;28;20042;-79
2022/06/20 12:04:48;;;;;;;6.25;3.90;;;;;;;26.58;46.51;99579.63;4981851;28;20501;-79
2022/06/20 12:07:39;;;;;;;8.48;3.28;;;;;;;26.55;46.55;99589.09;4953660;28;20061;-79
2022/06/20 12:10:27;;;;;;;9.57;4.00;;;;;;;26.43;46.50;99591.03;4984442;28;20180;-79
2022/06/20 12:13:33;;;;;;;14.23;4.00;;;;;;;26.18;47.80;99586.81;4976871;28;20038;-79
2022/06/20 12:16:37;;;;;;;7.50;3.95;;;;;;;26.10;47.81;99581.72;4912579;28;20137;-79
2022/06/20 12:24:35;;;;;;;10.00;3.72;;;;;;;26.11;47.52;99605.16;4976468;28;20433;-78
2022/06/20 12:27:10;;;;;;;7.57;3.50;;;;;;;26.03;47.88;99604.72;4965665;28;20045;-79
2022/06/20 12:29:37;;;;;;;9.73;3.92;;;;;;;26.09;47.33;99614.66;4981665;28;20402;-80
2022/06/20 12:32:14;;;;;;;7.22;3.70;;;;;;;25.90;47.48;99620.28;4981415;28;20052;-80
2022/06/20 12:34:59;;;;;;;6.28;3.78;;;;;;;25.72;47.94;99628.56;4984310;28;20042;-80
2022/06/20 12:37:35;;;;;;;6.57;3.47;;;;;;;25.59;48.27;99632.38;4975032;28;20041;-80
2022/06/20 12:40:26;;;;;;;5.65;3.33;;;;;;;25.42;49.37;99636.91;4987625;28;20050;-80
2022/06/20 12:43:21;;;;;;;6.45;3.83;;;;;;;25.52;48.55;99627.09;4936530;28;20116;-80
2022/06/20 12:46:01;;;;;;;7.07;3.33;;;;;;;25.42;48.77;99624.13;4988993;28;20047;-80
2022/06/20 12:49:09;;;;;;;5.55;3.83;;;;;;;25.47;49.14;99628.88;4937336;28;20042;-80
2022/06/20 12:52:01;;;;;;;8.63;4.05;;;;;;;25.38;49.43;99635.72;4922970;28;20049;-80
2022/06/20 12:54:53;;;;;;;5.95;3.50;;;;;;;25.32;48.94;99632.06;4953329;28;20046;-80